Time;durP1;ratioP1;P1;durP2;ratioP2;P2;SDS_P1;SDS_P2;PMS_P1;PMS_P2;Temp;Humidity;BMP_temperature;BMP_pressure;BME280_temperature;BME280_humidity;BME280_pressure;Samples;Min_cycle;Max_cycle;Signal;HPM_P1;HPM_P2
2022/10/21 00:02:12;;;;;;;13.95;10.55;;;15.20;92.30;;;;;;5008998;28;20400;-74
2022/10/21 00:04:38;;;;;;;20.73;14.88;;;15.20;92.20;;;;;;5009461;28;20032;-73
2022/10/21 00:07:04;;;;;;;24.15;14.60;;;15.20;92.40;;;;;;5008161;28;20581;-73
2022/10/21 00:09:30;;;;;;;18.58;14.93;;;15.30;92.40;;;;;;5009067;28;20014;-73
2022/10/21 00:11:56;;;;;;;17.10;12.90;;;15.30;92.90;;;;;;5009328;28;20014;-74
2022/10/21 00:14:21;;;;;;;24.70;18.65;;;15.20;92.90;;;;;;5008710;28;20025;-73
2022/10/21 00:16:47;;;;;;;17.15;13.15;;;15.20;93.50;;;;;;5009466;28;20550;-73
2022/10/21 00:19:12;;;;;;;25.92;19.15;;;15.30;93.60;;;;;;5006162;28;20100;-73
2022/10/21 00:21:39;;;;;;;21.02;14.90;;;15.30;93.70;;;;;;5009061;28;20480;-73
2022/10/21 00:24:05;;;;;;;22.38;16.20;;;15.30;93.60;;;;;;5009702;28;20057;-73
2022/10/21 00:26:32;;;;;;;17.30;12.63;;;15.30;93.60;;;;;;5009497;28;20022;-73
2022/10/21 00:28:57;;;;;;;17.65;12.80;;;15.30;93.60;;;;;;5009725;28;20492;-73
2022/10/21 00:31:24;;;;;;;19.95;15.40;;;15.30;93.40;;;;;;4988440;28;20057;-72
2022/10/21 00:33:50;;;;;;;22.75;14.07;;;15.30;93.70;;;;;;5008839;28;20403;-73
2022/10/21 00:36:17;;;;;;;17.20;13.05;;;15.40;93.80;;;;;;5008960;28;20034;-73
2022/10/21 00:38:47;;;;;;;19.90;14.13;;;15.40;93.50;;;;;;5009607;28;20030;-73
2022/10/21 00:41:15;;;;;;;15.05;10.82;;;15.30;93.50;;;;;;5009463;28;20089;-73
2022/10/21 00:44:01;;;;;;;19.40;13.85;;;15.30;92.80;;;;;;5012436;28;20053;-73
2022/10/21 00:46:45;;;;;;;28.60;19.70;;;15.30;93.00;;;;;;5014948;28;20022;-73
2022/10/21 00:49:19;;;;;;;19.13;13.77;;;15.30;93.60;;;;;;5011916;28;20037;-73
2022/10/21 00:51:48;;;;;;;21.48;16.67;;;15.30;93.10;;;;;;5015126;28;20018;-72
2022/10/21 00:54:15;;;;;;;20.45;13.95;;;15.30;93.40;;;;;;5012351;28;20021;-73
2022/10/21 00:56:42;;;;;;;22.40;16.00;;;15.30;93.70;;;;;;5015487;28;20105;-72
2022/10/21 00:59:08;;;;;;;19.95;16.20;;;15.30;93.50;;;;;;4997616;28;20022;-72
2022/10/21 01:01:34;;;;;;;18.27;13.38;;;15.40;93.70;;;;;;4995039;28;20041;-73
2022/10/21 01:04:02;;;;;;;28.25;18.23;;;15.40;93.50;;;;;;5015609;28;20029;-73
2022/10/21 01:06:28;;;;;;;20.10;13.95;;;15.40;93.80;;;;;;5015419;28;20022;-73
2022/10/21 01:08:56;;;;;;;23.02;15.40;;;15.40;93.90;;;;;;5014431;28;20419;-73
2022/10/21 01:11:23;;;;;;;18.08;14.05;;;15.40;93.90;;;;;;5014666;28;20018;-72
2022/10/21 01:14:12;;;;;;;26.38;16.73;;;15.50;93.90;;;;;;5014441;28;20088;-73
2022/10/21 01:16:55;;;;;;;22.90;16.98;;;15.50;93.90;;;;;;5012783;28;20125;-73
2022/10/21 01:19:51;;;;;;;27.42;17.48;;;15.50;94.00;;;;;;5012904;28;20042;-74
2022/10/21 01:22:58;;;;;;;16.27;12.05;;;15.50;93.90;;;;;;5014191;28;20037;-73
2022/10/21 01:25:56;;;;;;;20.10;14.68;;;15.50;93.80;;;;;;5013869;28;20060;-73
2022/10/21 01:28:44;;;;;;;21.88;14.63;;;15.50;93.70;;;;;;5012144;28;20026;-72
2022/10/21 01:32:02;;;;;;;27.80;18.30;;;15.50;93.40;;;;;;5014996;28;20026;-73
2022/10/21 01:35:01;;;;;;;17.33;13.50;;;15.50;93.70;;;;;;5014378;28;20021;-74
2022/10/21 01:37:39;;;;;;;20.60;15.80;;;15.40;93.00;;;;;;4966640;28;20037;-73
2022/10/21 01:40:26;;;;;;;21.48;15.13;;;15.40;92.90;;;;;;5010151;28;20105;-73
2022/10/21 01:42:56;;;;;;;16.15;11.13;;;15.40;93.50;;;;;;4971997;28;20042;-73
2022/10/21 01:45:49;;;;;;;23.02;16.90;;;15.40;93.30;;;;;;5014171;28;20027;-73
2022/10/21 01:48:22;;;;;;;16.30;9.98;;;15.40;93.70;;;;;;5013345;28;20403;-72
2022/10/21 01:50:54;;;;;;;16.92;10.98;;;15.30;91.70;;;;;;5014252;28;20030;-73
2022/10/21 01:53:22;;;;;;;17.48;12.85;;;15.30;91.90;;;;;;5014699;28;20026;-73
2022/10/21 01:55:49;;;;;;;23.13;16.40;;;15.30;92.50;;;;;;4986480;28;20030;-73
2022/10/21 01:58:22;;;;;;;16.60;11.45;;;15.30;93.00;;;;;;5011218;28;20037;-73
2022/10/21 02:00:51;;;;;;;14.55;10.73;;;15.30;92.80;;;;;;5011664;28;20675;-73
2022/10/21 02:03:21;;;;;;;22.40;16.58;;;15.30;92.30;;;;;;5011354;28;20029;-72
2022/10/21 02:05:47;;;;;;;16.00;10.95;;;15.30;92.90;;;;;;5012357;28;20030;-73
2022/10/21 02:08:13;;;;;;;19.83;13.48;;;15.30;92.50;;;;;;5012500;28;20692;-73
2022/10/21 02:10:43;;;;;;;19.05;13.07;;;15.30;92.90;;;;;;5012263;28;20818;-73
2022/10/21 02:13:12;;;;;;;27.35;17.38;;;15.40;93.00;;;;;;5007920;28;20019;-73
2022/10/21 02:15:40;;;;;;;19.13;13.45;;;15.40;93.60;;;;;;5005763;28;20551;-73
2022/10/21 02:18:08;;;;;;;19.42;13.93;;;15.40;93.20;;;;;;5008118;28;20030;-73
2022/10/21 02:20:40;;;;;;;28.63;17.88;;;15.40;93.40;;;;;;5000009;28;20500;-73
2022/10/21 02:23:08;;;;;;;26.05;17.50;;;15.40;93.60;;;;;;4999624;28;20036;-72
2022/10/21 02:25:37;;;;;;;25.77;17.95;;;15.40;93.70;;;;;;5001945;28;20033;-73
2022/10/21 02:28:03;;;;;;;18.55;13.68;;;15.40;93.80;;;;;;5009487;28;20030;-73
2022/10/21 02:30:55;;;;;;;22.85;15.27;;;15.30;93.50;;;;;;5010767;28;20083;-72
2022/10/21 02:33:50;;;;;;;22.38;16.30;;;15.40;93.70;;;;;;5009461;28;20317;-73
2022/10/21 02:36:32;;;;;;;26.48;18.60;;;15.30;93.60;;;;;;5009571;28;20018;-73
2022/10/21 02:39:03;;;;;;;32.72;19.60;;;15.30;93.90;;;;;;5011308;28;20117;-73
2022/10/21 02:41:31;;;;;;;25.02;15.57;;;15.30;94.10;;;;;;5006084;28;20041;-73
2022/10/21 02:44:00;;;;;;;23.60;16.65;;;15.30;93.80;;;;;;5011344;28;20014;-73
2022/10/21 02:46:35;;;;;;;27.13;18.85;;;15.20;93.90;;;;;;4992430;28;20029;-73
2022/10/21 02:49:00;;;;;;;20.98;14.35;;;15.20;94.10;;;;;;5006533;28;20032;-73
2022/10/21 02:51:26;;;;;;;20.17;15.27;;;15.20;94.20;;;;;;5009617;28;20010;-73
2022/10/21 02:53:51;;;;;;;23.85;15.73;;;15.20;94.20;;;;;;4988637;28;20050;-72
2022/10/21 02:56:17;;;;;;;19.20;12.82;;;15.20;94.20;;;;;;5009446;28;20100;-71
2022/10/21 02:58:42;;;;;;;25.55;16.60;;;15.20;94.30;;;;;;5009712;28;20192;-73
2022/10/21 03:01:08;;;;;;;16.73;12.20;;;15.10;94.10;;;;;;5011442;28;20025;-74
2022/10/21 03:03:34;;;;;;;24.85;17.45;;;15.10;94.20;;;;;;4989730;28;20026;-72
2022/10/21 03:06:00;;;;;;;22.27;15.38;;;15.10;94.20;;;;;;5009284;28;20025;-73
2022/10/21 03:08:26;;;;;;;25.55;17.00;;;15.10;94.10;;;;;;5006699;28;20021;-72
2022/10/21 03:10:52;;;;;;;25.25;16.70;;;15.10;94.20;;;;;;5009650;28;20084;-73
2022/10/21 03:13:17;;;;;;;27.05;17.60;;;15.10;94.20;;;;;;5009030;28;20809;-73
2022/10/21 03:15:43;;;;;;;29.95;17.92;;;15.10;94.40;;;;;;5006125;28;20033;-73
2022/10/21 03:18:09;;;;;;;26.83;16.50;;;15.10;94.50;;;;;;5010101;28;20030;-73
2022/10/21 03:20:34;;;;;;;21.63;16.60;;;15.10;94.50;;;;;;5009471;28;20052;-73
2022/10/21 03:23:00;;;;;;;27.40;17.63;;;15.20;94.60;;;;;;5009909;28;20014;-73
2022/10/21 03:25:26;;;;;;;22.23;14.88;;;15.10;94.50;;;;;;5009633;28;20061;-73
2022/10/21 03:27:51;;;;;;;25.42;16.85;;;15.10;94.50;;;;;;5008985;28;20022;-73
2022/10/21 03:30:17;;;;;;;25.05;17.40;;;15.10;94.60;;;;;;5008976;28;20033;-72
2022/10/21 03:32:43;;;;;;;20.73;14.90;;;15.10;94.60;;;;;;5008426;28;20029;-72
2022/10/21 03:35:08;;;;;;;23.45;16.83;;;15.10;94.20;;;;;;5008859;28;20096;-72
2022/10/21 03:37:34;;;;;;;28.67;19.35;;;15.10;94.20;;;;;;4995734;28;20561;-72
2022/10/21 03:39:59;;;;;;;27.40;16.55;;;15.10;94.30;;;;;;5008647;28;20022;-72
2022/10/21 03:42:27;;;;;;;26.45;17.90;;;15.00;94.20;;;;;;5009014;28;20076;-72
2022/10/21 03:44:53;;;;;;;17.95;13.15;;;15.00;94.40;;;;;;5008982;28;20025;-73
2022/10/21 03:47:19;;;;;;;21.90;14.90;;;15.00;93.90;;;;;;5008867;28;20021;-73
2022/10/21 03:49:45;;;;;;;17.60;12.15;;;15.00;93.40;;;;;;5005916;28;20061;-72
2022/10/21 03:52:10;;;;;;;18.02;13.00;;;14.90;93.50;;;;;;5009470;28;20496;-73
2022/10/21 03:54:36;;;;;;;18.27;12.80;;;14.90;93.30;;;;;;5010088;28;20037;-72
2022/10/21 03:57:02;;;;;;;16.05;11.95;;;14.90;92.80;;;;;;4982671;28;20022;-73
2022/10/21 03:59:28;;;;;;;19.77;13.07;;;14.90;92.80;;;;;;5008884;28;20033;-72
2022/10/21 04:01:54;;;;;;;19.58;14.15;;;14.90;92.50;;;;;;5008347;28;20501;-72
2022/10/21 04:04:20;;;;;;;32.20;19.60;;;14.80;93.10;;;;;;5008637;28;20101;-74
2022/10/21 04:06:45;;;;;;;19.67;13.25;;;14.90;93.80;;;;;;5009010;28;20148;-73
2022/10/21 04:09:11;;;;;;;24.55;16.40;;;14.90;93.90;;;;;;5008054;28;20053;-73
2022/10/21 04:11:37;;;;;;;26.95;19.73;;;14.90;93.50;;;;;;4990267;28;20025;-73
2022/10/21 04:14:02;;;;;;;20.42;15.35;;;14.90;93.70;;;;;;5008473;28;20025;-73
2022/10/21 04:16:28;;;;;;;22.95;14.30;;;14.80;93.80;;;;;;4996496;28;20022;-74
2022/10/21 04:18:54;;;;;;;31.27;18.13;;;14.90;93.60;;;;;;5007112;28;20053;-72
2022/10/21 04:21:19;;;;;;;19.60;13.65;;;14.80;93.90;;;;;;5007772;28;20380;-72
2022/10/21 04:23:45;;;;;;;23.27;15.70;;;14.80;94.00;;;;;;5008732;28;20116;-72
2022/10/21 04:26:11;;;;;;;18.48;12.70;;;14.80;94.20;;;;;;5007604;28;20021;-73
2022/10/21 04:28:37;;;;;;;14.50;9.45;;;14.80;93.70;;;;;;4990759;28;20033;-72
2022/10/21 04:31:03;;;;;;;29.88;17.67;;;14.80;93.30;;;;;;4989570;28;20030;-72
2022/10/21 04:33:28;;;;;;;23.70;14.85;;;14.80;93.90;;;;;;5007973;28;20014;-73
2022/10/21 04:35:55;;;;;;;26.75;17.23;;;14.80;93.80;;;;;;5002417;28;20420;-72
2022/10/21 04:38:22;;;;;;;27.25;15.48;;;14.80;93.90;;;;;;4990780;28;20038;-72
2022/10/21 04:40:57;;;;;;;23.63;16.75;;;14.70;93.70;;;;;;5004504;28;20026;-73
2022/10/21 04:43:23;;;;;;;18.95;14.02;;;14.80;94.00;;;;;;5007285;28;20064;-73
2022/10/21 04:45:49;;;;;;;16.30;12.52;;;14.80;93.90;;;;;;4995830;28;20060;-73
2022/10/21 04:48:14;;;;;;;24.83;16.95;;;14.70;93.90;;;;;;5008066;28;20934;-74
2022/10/21 04:50:40;;;;;;;26.65;17.58;;;14.70;94.00;;;;;;5007471;28;20033;-73
2022/10/21 04:53:05;;;;;;;24.55;16.33;;;14.70;94.00;;;;;;5001180;28;20022;-73
2022/10/21 04:55:31;;;;;;;23.42;16.77;;;14.70;93.90;;;;;;4990661;28;20033;-73
2022/10/21 04:57:57;;;;;;;18.77;13.77;;;14.60;93.90;;;;;;5008736;28;20058;-73
2022/10/21 05:00:22;;;;;;;18.30;13.57;;;14.70;93.70;;;;;;5008748;28;20030;-74
2022/10/21 05:02:48;;;;;;;12.63;9.15;;;14.60;93.50;;;;;;5002653;28;20119;-74
2022/10/21 05:05:13;;;;;;;24.38;16.83;;;14.60;93.20;;;;;;5009069;28;20029;-75
2022/10/21 05:07:39;;;;;;;15.80;11.30;;;14.60;93.60;;;;;;5004155;28;20031;-74
2022/10/21 05:10:05;;;;;;;34.83;22.42;;;14.60;93.60;;;;;;5008983;28;20022;-74
2022/10/21 05:12:31;;;;;;;15.55;11.27;;;14.50;93.70;;;;;;5009010;28;20119;-72
2022/10/21 05:14:59;;;;;;;18.23;12.90;;;14.60;93.30;;;;;;5000424;28;20026;-74
2022/10/21 05:17:27;;;;;;;25.98;16.90;;;14.60;93.40;;;;;;5008451;28;20014;-73
2022/10/21 05:19:52;;;;;;;22.23;15.07;;;14.50;93.70;;;;;;5005359;28;20057;-73
2022/10/21 05:22:19;;;;;;;19.80;12.68;;;14.60;93.90;;;;;;5006960;28;20025;-73
2022/10/21 05:24:44;;;;;;;24.05;17.35;;;14.60;93.50;;;;;;5008937;28;20096;-73
2022/10/21 05:27:10;;;;;;;29.48;17.23;;;14.60;93.80;;;;;;5008315;28;20152;-74
2022/10/21 05:29:36;;;;;;;17.52;12.82;;;14.60;93.90;;;;;;5008830;28;20087;-73
2022/10/21 05:32:02;;;;;;;27.45;16.85;;;14.60;93.90;;;;;;5012317;28;20050;-74
2022/10/21 05:34:27;;;;;;;24.70;16.23;;;14.60;93.90;;;;;;5008014;28;20022;-73
2022/10/21 05:36:53;;;;;;;18.70;12.35;;;14.60;93.90;;;;;;4981415;28;20022;-73
2022/10/21 05:39:18;;;;;;;18.80;13.60;;;14.50;93.80;;;;;;5010942;28;20026;-73
2022/10/21 05:41:44;;;;;;;22.80;16.60;;;14.50;93.60;;;;;;5012182;28;20029;-74
2022/10/21 05:44:09;;;;;;;23.20;16.92;;;14.50;93.80;;;;;;4995312;28;20045;-74
2022/10/21 05:46:35;;;;;;;23.67;15.27;;;14.50;94.00;;;;;;5011436;28;20076;-73
2022/10/21 05:49:02;;;;;;;23.58;15.00;;;14.50;93.90;;;;;;5001392;28;20026;-73
2022/10/21 05:51:28;;;;;;;27.73;17.65;;;14.50;93.90;;;;;;5010373;28;20025;-72
2022/10/21 05:53:56;;;;;;;22.98;16.23;;;14.60;94.10;;;;;;5011204;28;20257;-73
2022/10/21 05:56:22;;;;;;;18.65;11.85;;;14.50;94.20;;;;;;4998646;28;20432;-72
2022/10/21 05:58:48;;;;;;;17.08;12.48;;;14.60;94.00;;;;;;5011683;28;20171;-73
2022/10/21 06:01:13;;;;;;;15.02;10.05;;;14.60;94.00;;;;;;4994169;28;20060;-73
2022/10/21 06:03:39;;;;;;;17.48;11.48;;;14.60;93.90;;;;;;5011177;28;20099;-72
2022/10/21 06:06:07;;;;;;;20.92;14.32;;;14.60;93.80;;;;;;5004228;28;20097;-74
2022/10/21 06:08:35;;;;;;;19.17;12.07;;;14.60;93.90;;;;;;5011956;28;20022;-72
2022/10/21 06:11:13;;;;;;;15.73;10.93;;;14.60;93.90;;;;;;5012332;28;20034;-72
2022/10/21 06:13:40;;;;;;;20.05;12.88;;;14.50;93.80;;;;;;5010445;28;20038;-72
2022/10/21 06:16:07;;;;;;;19.10;12.25;;;14.50;93.80;;;;;;5011086;28;20022;-68
2022/10/21 06:18:33;;;;;;;10.63;8.35;;;14.40;93.90;;;;;;5009415;28;20040;-69
2022/10/21 06:20:59;;;;;;;13.57;9.25;;;14.50;94.40;;;;;;5010625;28;20049;-68
2022/10/21 06:23:25;;;;;;;10.02;7.32;;;14.80;94.70;;;;;;5009926;28;20488;-68
2022/10/21 06:26:14;;;;;;;13.48;8.57;;;15.00;94.60;;;;;;5008458;28;20500;-69
2022/10/21 06:28:42;;;;;;;9.10;7.17;;;15.20;94.20;;;;;;5000038;28;20120;-68
2022/10/21 06:31:11;;;;;;;14.27;8.20;;;15.50;93.70;;;;;;5009782;28;20026;-68
2022/10/21 06:33:37;;;;;;;12.77;8.20;;;15.60;93.30;;;;;;5007054;28;20475;-68
2022/10/21 06:36:03;;;;;;;13.13;8.48;;;15.80;92.90;;;;;;5009169;28;20025;-68
2022/10/21 06:38:28;;;;;;;10.60;7.05;;;16.00;92.70;;;;;;5009289;28;20022;-68
2022/10/21 06:41:07;;;;;;;12.23;7.95;;;16.10;92.30;;;;;;5006188;28;20030;-68
2022/10/21 06:43:33;;;;;;;10.15;6.93;;;16.20;92.10;;;;;;5004104;28;20045;-70
2022/10/21 06:46:05;;;;;;;13.40;6.78;;;16.30;91.90;;;;;;5008735;28;20017;-70
2022/10/21 06:48:30;;;;;;;9.80;6.35;;;16.40;91.70;;;;;;5009461;28;20022;-71
2022/10/21 06:50:58;;;;;;;11.48;6.95;;;16.40;91.60;;;;;;5008530;28;20056;-71
2022/10/21 06:53:23;;;;;;;11.57;7.13;;;16.50;91.40;;;;;;5007383;28;20036;-69
2022/10/21 06:55:49;;;;;;;10.23;6.18;;;16.60;91.20;;;;;;4999941;28;20030;-71
2022/10/21 06:58:14;;;;;;;13.48;7.50;;;16.70;91.30;;;;;;5006177;28;20021;-69
2022/10/21 07:00:40;;;;;;;10.13;7.13;;;16.90;91.40;;;;;;5001467;28;20137;-70
2022/10/21 07:03:06;;;;;;;12.68;7.75;;;17.10;91.10;;;;;;5003139;28;20072;-68
2022/10/21 07:05:31;;;;;;;11.13;6.55;;;17.20;90.70;;;;;;5006199;28;20025;-69
2022/10/21 07:07:57;;;;;;;11.90;6.97;;;17.20;90.40;;;;;;4990967;28;20026;-69
2022/10/21 07:10:23;;;;;;;12.40;7.13;;;17.20;90.30;;;;;;4975434;28;20028;-70
2022/10/21 07:12:48;;;;;;;9.90;7.22;;;17.10;90.20;;;;;;5010195;28;20446;-70
2022/10/21 07:15:14;;;;;;;11.13;7.05;;;17.10;90.20;;;;;;4996429;28;20503;-70
2022/10/21 07:17:40;;;;;;;11.45;7.13;;;17.10;90.10;;;;;;5003422;28;20384;-71
2022/10/21 07:20:05;;;;;;;12.43;6.97;;;17.00;90.10;;;;;;5001649;28;20437;-70
2022/10/21 07:22:31;;;;;;;10.30;7.35;;;17.00;90.10;;;;;;5009242;28;20045;-69
2022/10/21 07:24:57;;;;;;;12.55;7.82;;;17.00;90.10;;;;;;5009980;28;20049;-70
2022/10/21 07:27:22;;;;;;;11.40;7.10;;;17.00;90.00;;;;;;5009192;28;20049;-68
2022/10/21 07:29:48;;;;;;;11.15;7.10;;;17.00;89.90;;;;;;5003328;28;20018;-69
2022/10/21 07:32:14;;;;;;;10.57;6.93;;;17.00;89.70;;;;;;5000509;28;20030;-70
2022/10/21 07:34:40;;;;;;;11.15;6.75;;;16.90;90.00;;;;;;5007766;28;20029;-70
2022/10/21 07:37:06;;;;;;;10.65;7.90;;;16.90;90.10;;;;;;5008263;28;20036;-69
2022/10/21 07:39:33;;;;;;;11.00;6.55;;;16.90;90.10;;;;;;5009679;28;20037;-69
2022/10/21 07:41:58;;;;;;;11.13;7.22;;;16.90;90.10;;;;;;5009681;28;20018;-69
2022/10/21 07:44:25;;;;;;;9.30;6.47;;;16.80;90.10;;;;;;5008596;28;20491;-69
2022/10/21 07:46:52;;;;;;;13.63;6.97;;;16.80;90.20;;;;;;5004897;28;20041;-70
2022/10/21 07:49:24;;;;;;;10.50;6.90;;;16.80;90.20;;;;;;5008352;28;20116;-70
2022/10/21 07:51:49;;;;;;;11.57;7.70;;;16.90;90.20;;;;;;5007631;28;20030;-70
2022/10/21 07:54:16;;;;;;;14.85;10.50;;;16.90;90.10;;;;;;5007640;28;20419;-75
2022/10/21 07:56:50;;;;;;;15.77;10.32;;;16.90;90.10;;;;;;5008386;28;20014;-75
2022/10/21 07:59:19;;;;;;;21.00;13.43;;;16.80;90.30;;;;;;5007943;28;20531;-74
2022/10/21 08:01:46;;;;;;;19.40;12.85;;;16.70;90.60;;;;;;4994032;28;20033;-74
2022/10/21 08:04:15;;;;;;;17.48;12.88;;;16.60;90.90;;;;;;5007374;28;20112;-74
2022/10/21 08:06:40;;;;;;;15.80;10.75;;;16.50;91.20;;;;;;4988965;28;20108;-74
2022/10/21 08:09:06;;;;;;;14.07;9.95;;;16.40;91.60;;;;;;5004030;28;20105;-75
2022/10/21 08:11:33;;;;;;;22.15;13.85;;;16.30;91.50;;;;;;5008391;28;20100;-75
2022/10/21 08:13:59;;;;;;;16.58;12.32;;;16.20;92.00;;;;;;4990621;28;20036;-74
2022/10/21 08:16:25;;;;;;;21.20;12.05;;;16.20;92.30;;;;;;4990597;28;20030;-75
2022/10/21 08:18:52;;;;;;;14.52;9.43;;;16.20;92.20;;;;;;4986636;28;20056;-75
2022/10/21 08:21:17;;;;;;;17.88;13.60;;;16.20;92.30;;;;;;5009796;28;20483;-75
2022/10/21 08:23:43;;;;;;;15.27;11.57;;;16.20;92.40;;;;;;5010875;28;20033;-75
2022/10/21 08:26:12;;;;;;;18.40;11.45;;;16.10;92.60;;;;;;5009612;28;20352;-75
2022/10/21 08:28:38;;;;;;;13.55;10.48;;;16.10;92.80;;;;;;5006263;28;20025;-76
2022/10/21 08:31:10;;;;;;;21.90;13.00;;;16.10;93.00;;;;;;4985907;28;20601;-74
2022/10/21 08:33:36;;;;;;;16.05;12.50;;;16.20;93.00;;;;;;5009643;28;20479;-75
2022/10/21 08:36:12;;;;;;;15.90;11.40;;;16.20;93.00;;;;;;4987570;28;20053;-75
2022/10/21 08:38:37;;;;;;;19.25;12.38;;;16.20;93.10;;;;;;5009702;28;20033;-77
2022/10/21 08:41:17;;;;;;;20.05;13.43;;;16.30;93.10;;;;;;5009265;28;20564;-76
2022/10/21 08:43:43;;;;;;;15.75;10.68;;;16.30;93.20;;;;;;5020602;28;20034;-77
2022/10/21 08:46:17;;;;;;;23.65;12.88;;;16.30;93.20;;;;;;4999055;28;20057;-75
2022/10/21 08:48:54;;;;;;;25.17;12.98;;;16.30;93.10;;;;;;5009146;28;20113;-77
2022/10/21 08:51:31;;;;;;;17.30;12.20;;;16.30;93.00;;;;;;4987749;28;20041;-76
2022/10/21 08:54:03;;;;;;;16.52;11.77;;;16.30;93.10;;;;;;4998838;28;20884;-76
2022/10/21 08:56:30;;;;;;;17.52;11.93;;;16.30;93.10;;;;;;5009262;28;20022;-76
2022/10/21 08:58:56;;;;;;;12.68;9.55;;;16.30;92.50;;;;;;5008970;28;20033;-76
2022/10/21 09:01:38;;;;;;;16.15;11.27;;;16.30;92.60;;;;;;5000419;28;20084;-76
2022/10/21 09:04:20;;;;;;;12.80;8.55;;;16.30;92.80;;;;;;5008536;28;20141;-77
2022/10/21 09:07:02;;;;;;;14.63;10.60;;;16.30;92.70;;;;;;5003782;28;20026;-76
2022/10/21 09:09:56;;;;;;;19.02;11.88;;;16.20;92.90;;;;;;4994419;28;20018;-77
2022/10/21 09:12:58;;;;;;;17.15;10.15;;;16.30;93.30;;;;;;4995636;28;20068;-77
2022/10/21 09:15:32;;;;;;;19.88;10.88;;;16.30;93.20;;;;;;5011108;28;20502;-75
2022/10/21 09:18:32;;;;;;;17.75;11.02;;;16.40;93.30;;;;;;4984700;28;20088;-76
2022/10/21 09:21:04;;;;;;;14.68;9.15;;;16.40;93.30;;;;;;4981873;28;20058;-76
2022/10/21 09:23:54;;;;;;;15.23;11.25;;;16.40;93.50;;;;;;5005284;28;20022;-77
2022/10/21 09:26:29;;;;;;;15.93;10.32;;;16.40;93.60;;;;;;5010542;28;20038;-77
2022/10/21 09:28:55;;;;;;;18.80;10.80;;;16.40;93.70;;;;;;4995125;28;20044;-74
2022/10/21 09:31:20;;;;;;;16.13;10.82;;;16.50;93.80;;;;;;5011620;28;20030;-75
2022/10/21 09:33:52;;;;;;;13.90;9.75;;;16.50;93.80;;;;;;5008357;28;20026;-75
2022/10/21 09:36:21;;;;;;;13.43;9.48;;;16.50;93.90;;;;;;4995081;28;20018;-76
2022/10/21 09:39:12;;;;;;;18.10;10.45;;;16.60;93.90;;;;;;5013132;28;20034;-76
2022/10/21 09:41:48;;;;;;;12.00;7.97;;;16.60;93.90;;;;;;5012654;28;20022;-77
2022/10/21 09:44:20;;;;;;;13.65;6.82;;;16.70;93.60;;;;;;5002181;28;20030;-77
2022/10/21 09:46:47;;;;;;;14.40;7.55;;;16.70;93.20;;;;;;5012125;28;20103;-76
2022/10/21 09:49:30;;;;;;;14.25;8.90;;;16.70;92.90;;;;;;5003544;28;20109;-76
2022/10/21 09:52:03;;;;;;;13.30;8.35;;;16.60;93.70;;;;;;5011624;28;20026;-76
2022/10/21 09:54:34;;;;;;;12.38;7.82;;;16.70;93.80;;;;;;5004839;28;20025;-76
2022/10/21 09:57:13;;;;;;;14.48;10.05;;;16.70;93.90;;;;;;5011504;28;20330;-76
2022/10/21 09:59:54;;;;;;;15.38;8.98;;;16.80;93.90;;;;;;5006778;28;20041;-75
2022/10/21 10:02:29;;;;;;;11.40;5.93;;;16.80;93.90;;;;;;5007021;28;20026;-76
2022/10/21 10:04:55;;;;;;;11.80;7.07;;;16.80;92.50;;;;;;4993766;28;20018;-76
2022/10/21 10:07:33;;;;;;;17.40;9.65;;;16.80;93.10;;;;;;5010988;28;20048;-76
2022/10/21 10:09:58;;;;;;;17.80;9.52;;;16.80;93.60;;;;;;5008776;28;20025;-76
2022/10/21 10:12:26;;;;;;;22.35;9.10;;;16.90;93.90;;;;;;5006565;28;20037;-75
2022/10/21 10:14:54;;;;;;;13.27;7.30;;;16.90;94.20;;;;;;5010635;28;20022;-75
2022/10/21 10:17:22;;;;;;;13.27;8.15;;;16.90;94.30;;;;;;5010190;28;20026;-75
2022/10/21 10:20:03;;;;;;;12.40;8.20;;;17.00;94.40;;;;;;5010788;28;20068;-76
2022/10/21 10:22:43;;;;;;;11.80;7.18;;;17.00;94.20;;;;;;5006929;28;20032;-75
2022/10/21 10:25:20;;;;;;;13.18;8.20;;;17.00;94.50;;;;;;4986245;28;20026;-75
2022/10/21 10:28:09;;;;;;;15.43;7.57;;;17.10;94.30;;;;;;5008444;28;20026;-75
2022/10/21 10:30:40;;;;;;;11.70;6.88;;;17.10;94.10;;;;;;5008002;28;20168;-76
2022/10/21 10:33:23;;;;;;;11.85;7.72;;;17.10;94.20;;;;;;5010676;28;20022;-75
2022/10/21 10:35:56;;;;;;;10.88;5.47;;;17.20;94.20;;;;;;5004485;28;20026;-76
2022/10/21 10:38:31;;;;;;;12.85;7.15;;;17.30;93.80;;;;;;5003892;28;20027;-75
2022/10/21 10:41:07;;;;;;;12.88;7.18;;;17.30;93.80;;;;;;5000514;28;20612;-76
2022/10/21 10:43:35;;;;;;;13.30;7.65;;;17.30;93.70;;;;;;5009180;28;20022;-75
2022/10/21 10:46:09;;;;;;;19.50;9.63;;;17.40;94.10;;;;;;5010331;28;20022;-77
2022/10/21 10:48:44;;;;;;;17.17;8.27;;;17.40;94.20;;;;;;5004381;28;20136;-76
2022/10/21 10:51:32;;;;;;;13.43;7.50;;;17.40;94.20;;;;;;5006641;28;20022;-75
2022/10/21 10:54:00;;;;;;;12.93;8.75;;;17.40;94.20;;;;;;5000882;28;20023;-76
2022/10/21 10:56:34;;;;;;;12.32;7.85;;;17.40;94.30;;;;;;5010201;28;20041;-75
2022/10/21 10:59:32;;;;;;;11.02;7.07;;;17.50;94.30;;;;;;5009422;28;20058;-76
2022/10/21 11:02:07;;;;;;;14.73;9.23;;;17.50;94.40;;;;;;5003173;28;20088;-75
2022/10/21 11:05:04;;;;;;;16.08;8.95;;;17.60;94.30;;;;;;5007187;28;20164;-76
2022/10/21 11:07:53;;;;;;;16.33;8.32;;;17.60;94.20;;;;;;5001790;28;20038;-76
2022/10/21 11:10:32;;;;;;;10.43;7.18;;;17.60;93.80;;;;;;5000950;28;20113;-75
2022/10/21 11:12:59;;;;;;;14.90;8.02;;;17.60;93.00;;;;;;5005274;28;20492;-76
2022/10/21 11:15:37;;;;;;;11.73;7.47;;;17.60;93.40;;;;;;5004644;28;20033;-76
2022/10/21 11:18:32;;;;;;;15.70;9.07;;;17.60;93.60;;;;;;5009549;28;20080;-76
2022/10/21 11:21:31;;;;;;;10.57;6.78;;;17.70;93.50;;;;;;4967818;28;20052;-74
2022/10/21 11:24:36;;;;;;;13.98;7.63;;;17.80;93.20;;;;;;5009695;28;20018;-76
2022/10/21 11:27:15;;;;;;;13.20;6.78;;;17.80;93.00;;;;;;5004617;28;20030;-75
2022/10/21 11:30:06;;;;;;;8.43;4.90;;;17.80;92.80;;;;;;5007112;28;20037;-76
2022/10/21 11:32:43;;;;;;;8.93;6.40;;;17.80;91.80;;;;;;5004840;28;20189;-76
2022/10/21 11:35:30;;;;;;;7.40;4.78;;;17.90;91.50;;;;;;5008316;28;20587;-77
2022/10/21 11:38:26;;;;;;;9.55;4.68;;;17.90;90.00;;;;;;4988576;28;20042;-77
2022/10/21 11:40:56;;;;;;;8.55;4.75;;;17.90;90.10;;;;;;4990616;28;20034;-75
2022/10/21 11:44:05;;;;;;;14.75;7.78;;;18.00;89.70;;;;;;5008719;28;20128;-76
2022/10/21 11:46:47;;;;;;;12.18;7.68;;;18.00;90.50;;;;;;5004636;28;20033;-74
2022/10/21 11:49:28;;;;;;;10.48;6.53;;;18.10;91.90;;;;;;5007510;28;20120;-75
2022/10/21 11:52:16;;;;;;;14.43;8.38;;;18.30;92.40;;;;;;5008753;28;20387;-75
2022/10/21 11:55:08;;;;;;;17.60;7.93;;;18.50;90.70;;;;;;5001242;28;20096;-76
2022/10/21 11:58:00;;;;;;;10.02;6.53;;;18.70;90.80;;;;;;5003827;28;20061;-76
2022/10/21 12:00:28;;;;;;;12.65;6.95;;;18.90;90.60;;;;;;5006539;28;20036;-76
2022/10/21 12:03:14;;;;;;;8.00;3.50;;;19.20;90.40;;;;;;4986717;28;20026;-76
2022/10/21 12:06:00;;;;;;;9.75;4.65;;;19.50;85.80;;;;;;5006608;28;20030;-77
2022/10/21 12:08:44;;;;;;;12.07;6.97;;;19.90;87.70;;;;;;4984679;28;20510;-76
2022/10/21 12:11:33;;;;;;;9.10;5.68;;;20.10;87.00;;;;;;4989811;28;20100;-76
2022/10/21 12:14:29;;;;;;;9.98;5.03;;;20.10;87.10;;;;;;5005088;28;20026;-76
2022/10/21 12:16:59;;;;;;;9.50;3.95;;;20.20;86.60;;;;;;4983793;28;20053;-77
2022/10/21 12:19:25;;;;;;;12.38;6.50;;;20.30;83.30;;;;;;4984681;28;20072;-77
2022/10/21 12:21:51;;;;;;;8.43;4.82;;;20.40;85.10;;;;;;5007816;28;20079;-77
2022/10/21 12:24:27;;;;;;;11.13;4.03;;;20.50;85.40;;;;;;4987692;28;20030;-77
2022/10/21 12:27:03;;;;;;;7.38;4.50;;;20.50;83.20;;;;;;5006446;28;20088;-76
2022/10/21 12:29:46;;;;;;;8.25;3.92;;;20.40;83.40;;;;;;5005609;28;20050;-77
2022/10/21 12:32:30;;;;;;;9.00;5.20;;;20.30;83.60;;;;;;5004835;28;20030;-79
2022/10/21 12:34:56;;;;;;;5.88;2.72;;;20.50;86.10;;;;;;5002146;28;20034;-77
2022/10/21 12:37:43;;;;;;;12.55;5.63;;;20.60;82.00;;;;;;5004077;28;20511;-76
2022/10/21 12:40:34;;;;;;;7.03;3.75;;;20.60;82.30;;;;;;5004612;28;20049;-78
2022/10/21 12:43:27;;;;;;;6.85;3.60;;;20.60;81.30;;;;;;4992647;28;20460;-77
2022/10/21 12:46:09;;;;;;;8.48;3.53;;;20.60;82.00;;;;;;5006795;28;20062;-77
2022/10/21 12:48:42;;;;;;;6.43;3.58;;;20.60;81.90;;;;;;5007677;28;20057;-77
2022/10/21 12:51:20;;;;;;;9.25;2.83;;;20.70;81.80;;;;;;5009410;28;20053;-76
2022/10/21 12:53:55;;;;;;;7.20;3.78;;;20.80;82.20;;;;;;5001282;28;20031;-77
2022/10/21 12:56:31;;;;;;;4.85;2.75;;;20.90;79.80;;;;;;5004844;28;20034;-75